< < Back
Terminal Aerodrome Forecast


Current Version              Previous Versions:   1  2  3  4  5  6  7  8  9  

Terminal Aerodrome Forecast

509
FTUS42 KCAE 221024 AAB
TAFCAE
TAF AMD
KCAE 221024Z 2210/2306 04010KT P6SM BKN040
     FM221600 02008KT P6SM SKC=



Latest METAR

034
SAUS80 KWBC 221700
MTRCAE
METAR KCAE 221656Z 02006KT 10SM SCT060 23/07 A3020 RMK AO2 SLP224
T02280072


USA.gov is the U.S. government's official web portal to all federal, state and local government web resources and services.